AirNav   Everest Fuels
 
 1490 users online  

KIDG Ida Grove Municipal Airport
Ida Grove, Iowa, USA

GOING TO IDA GROVE?


FAA INFORMATION EFFECTIVE 07 OCTOBER 2021

Location

FAA Identifier: IDG
Lat/Long: 42-19-57.3520N 095-26-41.5960W
42-19.955867N 095-26.693267W
42.3325978,-95.4448878
(estimated)
Elevation: 1245 ft. / 379.5 m (surveyed)
Variation: 06E (1980)
From city: 2 miles SE of IDA GROVE, IA
Time zone: UTC -5 (UTC -6 during Standard Time)
Zip code: 51445

Airport Operations

Airport use: Open to the public
Activation date: 04/1960
Control tower: no
ARTCC: MINNEAPOLIS CENTER
FSS: FORT DODGE FLIGHT SERVICE STATION
NOTAMs facility: FOD (NOTAM-D service available)
Attendance: ON CALL
Wind indicator: lighted
Segmented circle: no
Lights: FOR LIRL RY 12/30 KEY CTAF 7 TIMES FOR MED INTST ONLY.
Beacon: white-green (lighted land airport)
Operates sunset to sunrise.

Airport Communications

CTAF/UNICOM: 122.8
WX AWOS-3 at SLB (18 nm NE): 118.525 (712-732-2301)

Airport Services

Parking: hangars and tiedowns
Bottled oxygen: NONE
Bulk oxygen: NONE

Runway Information

Runway 12/30

Dimensions: 3172 x 50 ft. / 967 x 15 m
Surface: asphalt, in fair condition
Runway edge lights: low intensity
RUNWAY 12  RUNWAY 30
Latitude: 42-20.093500N42-19.818833N
Longitude: 095-26.992167W095-26.393667W
Elevation: 1236.0 ft.1245.0 ft.
Traffic pattern: leftleft
Runway heading: 116 magnetic, 122 true296 magnetic, 302 true
Displaced threshold: 350 ft.290 ft.
Markings: basic, in good conditionbasic, in good condition
Touchdown point: yes, no lightsyes, no lights
Obstructions: 31 ft. trees, 200 ft. from runway, 100 ft. left of centerline
4' WALL 60' FROM RUNWAY END
22 ft. road, 200 ft. from runway
APCH SLOPE 22:1 TO DSPLCD THLD.

Airport Ownership and Management from official FAA records

Ownership: Publicly-owned
Owner: CITY OF IDA GROVE
403 3RD STREET
IDA GROVE, IA 51445
Phone 712-364-2428
Manager: HEATHER SWEEDEN
403 3RD STREET
IDA GROVE, IA 51445
Phone 712-364-2428
CITY CLERK

Airport Operational Statistics

Aircraft based on the field: 5
Single engine airplanes: 1
Multi engine airplanes: 2
Ultralights: 2
    
Aircraft operations: avg 24/week *
67% local general aviation
33% transient general aviation
* for 12-month period ending 03 October 2018

Additional Remarks

600 FT MODEL AIRPLANE RY LCTD 1/2 MI NORTH OF ARPT; DO NOT MISTAKE FOR ARPT RY.
FOR CD CTC MINNEAPOLIS ARTCC AT 651-463-5588.

Instrument Procedures

There are no published instrument procedures at KIDG.

Some nearby airports with instrument procedures:

KMEY - James G Whiting Memorial Field Airport (18 nm SW)
KSLB - Storm Lake Municipal Airport (18 nm NE)
KSKI - Sac City Municipal Airport (21 nm E)
KDNS - Denison Municipal Airport (21 nm S)
KCKP - Cherokee County Regional Airport (24 nm N)
 
Loc | Ops | Rwys | IFR | FBO | Links
Com | Nav | Svcs | Stats | Notes
Area around KIDG (Ida Grove Municipal Airport)
 
Road maps at: MapQuest Bing Google
 
Aerial photo
WARNING: Photo may not be current or correct
Aerial photo of KIDG (Ida Grove Municipal Airport)
Photo by Iden Mersereau
Photo taken 08-Jul-2018
looking north.

Do you have a better or more recent aerial photo of Ida Grove Municipal Airport that you would like to share? If so, please send us your photo.

 
Sectional chart

 
Airport distance calculator
Flying to Ida Grove Municipal Airport? Find the distance to fly.

From to KIDG

Sunrise and sunset
Times for 18-Oct-2021
 Local
(UTC-5)
 Zulu
(UTC)
Morning civil twilight07:1112:11
Sunrise07:3912:39
Sunset18:3523:35
Evening civil twilight19:0300:03

Current date and time
Zulu (UTC)  18-Oct-2021 21:03:52
Local (UTC-5)  18-Oct-2021 16:03:52
 
METAR
KSLB 
19nm NE 
182055Z AUTO 18016G24KT 10SM CLR 24/02 A2992 RMK AO2
KDNS 
22nm S 
182055Z AUTO 18016G24KT 9SM CLR 23/M03 A2993 RMK AO2
KCKP 
24nm N 
182055Z AUTO 19016G19KT 10SM CLR 23/04 A2990 RMK AO2 T02310037
KCIN 
35nm SE 
182055Z AUTO 18017G23KT 10SM CLR 24/03 A2993 RMK AO2
TAF
KSUX 
42nm W 
181720Z 1818/1918 16013G19KT P6SM SKC FM190500 16010G15KT P6SM SCT250 WS020/20040KT FM190800 16009KT P6SM SCT250 WS020/21040KT FM191000 16009KT P6SM SCT250 FM191500 17012G18KT P6SM FEW250
NOTAMs
Click for the latest NOTAMs
NOTAMs are issued by the DoD/FAA and will open in a separate window not controlled by AirNav.

 

 
 

Would you like to see your business listed on this page?

 If your business provides an interesting product or service to pilots, flight crews, aircraft, or users of the Ida Grove Municipal Airport, you should consider listing it here.  To start the listing process, click on the button below
 
Add a business
 

Other Pages about Ida Grove Municipal Airport

Page from the Iowa Airport Directory
 
Update a link
 
Copyright © AirNav, LLC. All rights reserved. Privacy Policy  Contact